createdAt,value
2022-10-19T00:01:21.979Z,1.50
2022-10-19T00:03:54.162Z,2.08
2022-10-19T00:06:27.688Z,1.90
2022-10-19T00:08:58.520Z,1.90
2022-10-19T00:11:27.453Z,2.30
2022-10-19T00:13:57.059Z,1.88
2022-10-19T00:16:27.594Z,1.98
2022-10-19T00:19:04.959Z,1.60
2022-10-19T00:21:33.918Z,1.42
2022-10-19T00:24:02.272Z,1.55
2022-10-19T00:26:30.361Z,2.08
2022-10-19T00:28:59.106Z,1.63
2022-10-19T00:31:28.056Z,2.35
2022-10-19T00:33:57.935Z,2.45
2022-10-19T00:36:31.352Z,2.15
2022-10-19T00:39:00.433Z,2.03
2022-10-19T00:41:31.440Z,1.85
2022-10-19T00:44:19.722Z,1.73
2022-10-19T00:46:53.426Z,2.08
2022-10-19T00:49:26.017Z,2.30
2022-10-19T00:52:21.844Z,1.80
2022-10-19T00:54:52.652Z,2.00
2022-10-19T00:57:21.192Z,1.67
2022-10-19T00:59:49.829Z,1.65
2022-10-19T01:02:17.948Z,2.10
2022-10-19T01:04:52.004Z,1.95
2022-10-19T01:07:21.105Z,2.28
2022-10-19T01:09:49.069Z,1.80
2022-10-19T01:12:35.604Z,1.92
2022-10-19T01:15:20.187Z,2.20
2022-10-19T01:17:48.344Z,1.58
2022-10-19T01:20:50.185Z,1.60
2022-10-19T01:23:49.477Z,2.28
2022-10-19T01:26:35.629Z,1.77
2022-10-19T01:29:37.398Z,2.03
2022-10-19T01:32:16.873Z,1.73
2022-10-19T01:34:57.716Z,2.50
2022-10-19T01:37:38.592Z,1.65
2022-10-19T01:40:40.714Z,1.48
2022-10-19T01:43:17.925Z,1.98
2022-10-19T01:45:49.884Z,1.85
2022-10-19T01:48:25.928Z,1.63
2022-10-19T01:51:08.158Z,1.88
2022-10-19T01:53:42.784Z,2.20
2022-10-19T01:56:13.015Z,2.08
2022-10-19T01:58:43.528Z,1.83
2022-10-19T02:01:14.069Z,1.80
2022-10-19T02:03:43.888Z,2.03
2022-10-19T02:06:14.552Z,1.48
2022-10-19T02:08:47.072Z,1.50
2022-10-19T02:11:16.640Z,2.13
2022-10-19T02:13:46.932Z,2.63
2022-10-19T02:16:28.250Z,2.55
2022-10-19T02:18:57.793Z,2.25
2022-10-19T02:21:27.438Z,1.77
2022-10-19T02:23:56.080Z,2.20
2022-10-19T02:26:24.172Z,2.15
2022-10-19T02:28:55.191Z,2.30
2022-10-19T02:31:23.573Z,2.08
2022-10-19T02:33:51.723Z,2.15
2022-10-19T02:36:20.354Z,1.80
2022-10-19T02:38:48.290Z,2.10
2022-10-19T02:41:24.205Z,2.22
2022-10-19T02:44:00.561Z,1.95
2022-10-19T02:47:00.553Z,2.20
2022-10-19T02:49:30.710Z,2.03
2022-10-19T02:52:04.791Z,2.30
2022-10-19T02:54:32.921Z,2.03
2022-10-19T02:57:01.190Z,2.25
2022-10-19T02:59:28.904Z,2.95
2022-10-19T03:01:57.580Z,2.28
2022-10-19T03:04:31.834Z,2.42
2022-10-19T03:07:02.717Z,2.95
2022-10-19T03:09:31.180Z,2.53
2022-10-19T03:11:59.381Z,2.42
2022-10-19T03:14:27.281Z,2.80
2022-10-19T03:16:57.409Z,2.40
2022-10-19T03:19:25.472Z,2.00
2022-10-19T03:21:55.037Z,1.90
2022-10-19T03:27:47.608Z,2.75
2022-10-19T03:30:37.262Z,3.60
2022-10-19T03:33:10.611Z,3.17
2022-10-19T03:38:43.432Z,1.80
2022-10-19T03:41:32.112Z,1.90
2022-10-19T03:49:06.539Z,2.13
2022-10-19T03:59:03.625Z,2.10
2022-10-19T04:01:44.445Z,2.25
2022-10-19T04:04:19.978Z,2.17
2022-10-19T04:06:49.993Z,2.38
2022-10-19T04:21:06.865Z,2.35
2022-10-19T04:23:35.984Z,3.00
2022-10-19T04:26:08.212Z,2.60
2022-10-19T04:28:35.819Z,2.70
2022-10-19T04:31:05.556Z,2.17
2022-10-19T04:33:34.776Z,3.22
2022-10-19T04:36:04.651Z,2.65
2022-10-19T04:38:33.017Z,2.60
2022-10-19T04:41:08.025Z,2.05
2022-10-19T04:43:36.121Z,2.87
2022-10-19T04:46:15.409Z,3.33
2022-10-19T04:48:44.244Z,2.90
2022-10-19T04:51:16.657Z,3.50
2022-10-19T04:53:45.697Z,2.42
2022-10-19T04:56:19.415Z,2.30
2022-10-19T04:58:47.715Z,2.50
2022-10-19T05:01:22.253Z,2.58
2022-10-19T05:03:54.785Z,2.55
2022-10-19T05:06:23.086Z,3.28
2022-10-19T05:08:51.439Z,4.68
2022-10-19T05:11:20.075Z,5.15
2022-10-19T05:13:48.232Z,7.97
2022-10-19T05:16:19.174Z,7.07
2022-10-19T05:18:51.323Z,7.65
2022-10-19T05:21:20.924Z,6.63
2022-10-19T05:23:52.394Z,4.20
2022-10-19T05:26:22.497Z,3.33
2022-10-19T05:28:56.614Z,2.88
2022-10-19T05:31:29.672Z,3.03
2022-10-19T05:33:57.803Z,3.58
2022-10-19T05:36:29.387Z,3.17
2022-10-19T05:38:58.303Z,2.15
2022-10-19T05:41:26.770Z,3.30
2022-10-19T05:44:00.426Z,2.55
2022-10-19T05:46:29.923Z,3.38
2022-10-19T05:48:58.698Z,3.70
2022-10-19T05:51:27.822Z,2.85
2022-10-19T05:53:56.521Z,3.30
2022-10-19T05:56:26.618Z,2.80
2022-10-19T05:58:56.925Z,4.30
2022-10-19T06:01:24.877Z,3.20
2022-10-19T06:03:54.608Z,3.35
2022-10-19T06:06:22.679Z,3.65
2022-10-19T06:08:51.750Z,2.78
2022-10-19T06:11:22.461Z,3.67
2022-10-19T06:13:53.446Z,3.35
2022-10-19T06:16:21.853Z,4.07
2022-10-19T06:18:49.819Z,3.80
2022-10-19T06:21:20.286Z,3.22
2022-10-19T06:23:56.030Z,3.45
2022-10-19T06:26:24.996Z,3.15
2022-10-19T06:28:56.061Z,3.63
2022-10-19T06:31:23.932Z,3.53
2022-10-19T06:33:51.574Z,3.40
2022-10-19T06:36:21.759Z,4.22
2022-10-19T06:38:49.922Z,3.67
2022-10-19T06:41:18.250Z,4.95
2022-10-19T06:43:53.166Z,4.05
2022-10-19T06:46:23.565Z,4.83
2022-10-19T06:48:56.368Z,4.63
2022-10-19T06:51:26.121Z,3.42
2022-10-19T06:53:57.258Z,3.47
2022-10-19T06:56:26.742Z,4.28
2022-10-19T06:58:54.809Z,4.03
2022-10-19T07:01:23.107Z,5.70
2022-10-19T07:03:52.615Z,5.20
2022-10-19T07:06:20.374Z,4.78
2022-10-19T07:08:48.177Z,4.28
2022-10-19T07:11:18.411Z,3.72
2022-10-19T07:13:46.314Z,5.45
2022-10-19T07:16:20.693Z,6.75
2022-10-19T07:18:51.157Z,5.15
2022-10-19T07:21:20.611Z,6.22
2022-10-19T07:23:48.573Z,4.43
2022-10-19T07:26:23.538Z,3.35
2022-10-19T07:28:51.539Z,2.83
2022-10-19T07:31:21.663Z,3.38
2022-10-19T07:34:01.182Z,3.47
2022-10-19T07:36:31.074Z,4.40
2022-10-19T07:38:58.798Z,3.58
2022-10-19T07:41:27.125Z,3.50
2022-10-19T07:43:55.113Z,2.35
2022-10-19T07:46:25.553Z,1.65
2022-10-19T07:48:54.024Z,1.25
2022-10-19T07:51:22.834Z,1.45
2022-10-19T07:53:50.751Z,1.73
2022-10-19T07:56:24.054Z,1.98
2022-10-19T07:58:53.686Z,2.17
2022-10-19T08:01:27.126Z,1.15
2022-10-19T08:04:48.586Z,1.33
2022-10-19T08:06:44.464Z,1.13
2022-10-19T08:09:27.793Z,1.20
2022-10-19T08:12:00.422Z,1.70
2022-10-19T08:14:28.529Z,1.17
2022-10-19T08:16:56.468Z,1.13
2022-10-19T08:19:24.428Z,1.25
2022-10-19T08:21:52.290Z,1.77
2022-10-19T08:24:21.186Z,1.35
2022-10-19T08:26:53.724Z,1.63
2022-10-19T08:29:21.847Z,1.77
2022-10-19T08:31:50.412Z,1.65
2022-10-19T08:34:18.398Z,1.88
2022-10-19T08:36:46.502Z,1.23
2022-10-19T08:39:17.014Z,0.93
2022-10-19T08:42:17.183Z,1.13
2022-10-19T08:44:53.830Z,0.82
2022-10-19T08:47:43.201Z,1.20
2022-10-19T08:50:44.971Z,1.20
2022-10-19T08:53:17.196Z,0.90
2022-10-19T08:56:03.690Z,0.93
2022-10-19T08:58:54.188Z,0.85
2022-10-19T09:01:55.703Z,1.73
2022-10-19T09:04:38.433Z,1.40
2022-10-19T09:07:18.617Z,1.83
2022-10-19T09:09:52.580Z,1.60
2022-10-19T09:12:35.375Z,1.23
2022-10-19T09:15:07.102Z,1.27
2022-10-19T09:17:35.290Z,1.13
2022-10-19T09:20:22.817Z,1.13
2022-10-19T09:23:07.659Z,1.00
2022-10-19T09:25:39.865Z,1.20
2022-10-19T09:28:42.393Z,1.10
2022-10-19T09:31:26.267Z,0.98
2022-10-19T09:36:50.227Z,0.70
2022-10-19T09:39:20.906Z,0.98
2022-10-19T09:41:54.869Z,0.55
2022-10-19T09:44:28.730Z,0.85
2022-10-19T09:47:34.209Z,0.75
2022-10-19T09:50:21.318Z,1.38
2022-10-19T09:52:58.331Z,0.60
2022-10-19T09:55:37.169Z,0.90
2022-10-19T09:58:14.198Z,0.38
2022-10-19T10:00:56.049Z,0.75
2022-10-19T10:03:40.486Z,0.68
2022-10-19T10:06:17.906Z,0.52
2022-10-19T10:08:59.177Z,0.60
2022-10-19T10:11:42.533Z,0.40
2022-10-19T10:14:23.653Z,0.80
2022-10-19T10:16:57.778Z,0.55
2022-10-19T10:19:31.057Z,0.60
2022-10-19T10:22:00.444Z,0.47
2022-10-19T10:24:31.089Z,0.55
2022-10-19T10:27:04.078Z,0.57
2022-10-19T10:29:37.854Z,0.63
2022-10-19T10:32:23.664Z,0.40
2022-10-19T10:35:34.983Z,0.63
2022-10-19T10:38:32.099Z,0.80
2022-10-19T10:41:11.537Z,0.28
2022-10-19T10:43:56.013Z,0.93
2022-10-19T10:46:28.884Z,0.63
2022-10-19T10:48:58.244Z,0.43
2022-10-19T10:51:38.969Z,0.63
2022-10-19T10:54:32.379Z,0.15
2022-10-19T10:57:16.756Z,0.77
2022-10-19T10:59:59.779Z,0.32
2022-10-19T11:02:36.689Z,0.40
2022-10-19T11:05:25.426Z,0.47
2022-10-19T11:08:12.155Z,0.65
2022-10-19T11:11:08.788Z,0.55
2022-10-19T11:13:55.118Z,0.90
2022-10-19T11:16:31.489Z,0.73
2022-10-19T11:19:22.473Z,0.50
2022-10-19T11:22:05.345Z,1.13
2022-10-19T11:24:46.477Z,0.65
2022-10-19T11:27:49.998Z,0.50
2022-10-19T11:30:21.617Z,0.20
2022-10-19T11:33:01.924Z,0.43
2022-10-19T11:36:05.383Z,0.63
2022-10-19T11:38:56.490Z,0.50
2022-10-19T11:41:45.204Z,0.30
2022-10-19T11:44:24.503Z,0.50
2022-10-19T11:46:55.039Z,0.60
2022-10-19T11:49:53.449Z,0.32
2022-10-19T11:52:51.483Z,0.68
2022-10-19T11:55:54.365Z,0.95
2022-10-19T11:58:24.706Z,0.20
2022-10-19T12:01:13.057Z,0.55
2022-10-19T12:03:58.438Z,0.60
2022-10-19T12:06:34.827Z,1.02
2022-10-19T12:09:28.661Z,0.38
2022-10-19T12:12:11.312Z,0.55
2022-10-19T12:14:41.451Z,0.70
2022-10-19T12:17:15.139Z,0.50
2022-10-19T12:19:50.566Z,0.60
2022-10-19T12:22:24.123Z,0.55
2022-10-19T12:24:55.510Z,0.98
2022-10-19T12:27:36.345Z,1.38
2022-10-19T12:30:17.150Z,0.93
2022-10-19T12:33:22.947Z,1.05
2022-10-19T12:36:11.971Z,1.45
2022-10-19T12:39:17.871Z,0.50
2022-10-19T12:41:53.265Z,0.68
2022-10-19T12:45:06.007Z,0.82
2022-10-19T12:47:39.564Z,0.57
2022-10-19T12:50:10.673Z,0.93
2022-10-19T12:52:48.592Z,0.45
2022-10-19T12:55:16.387Z,0.82
2022-10-19T12:57:55.857Z,0.38
2022-10-19T13:00:27.151Z,0.98
2022-10-19T13:03:23.956Z,0.63
2022-10-19T13:05:59.025Z,0.85
2022-10-19T13:08:48.441Z,0.77
2022-10-19T13:11:16.346Z,0.70
2022-10-19T13:14:01.503Z,0.32
2022-10-19T13:16:30.282Z,0.60
2022-10-19T13:19:18.802Z,0.63
2022-10-19T13:21:49.851Z,0.35
2022-10-19T13:24:26.207Z,0.65
2022-10-19T13:27:02.105Z,0.98
2022-10-19T13:29:40.404Z,0.80
2022-10-19T13:32:31.551Z,0.60
2022-10-19T13:35:30.999Z,0.68
2022-10-19T13:38:17.055Z,0.40
2022-10-19T13:40:47.374Z,0.52
2022-10-19T13:43:39.520Z,0.50
2022-10-19T13:46:21.208Z,0.52
2022-10-19T13:49:09.790Z,0.68
2022-10-19T13:51:52.130Z,0.77
2022-10-19T13:54:52.376Z,0.88
2022-10-19T13:57:42.885Z,1.27
2022-10-19T14:00:24.290Z,1.90
2022-10-19T14:03:35.594Z,2.33
2022-10-19T14:06:28.846Z,1.48
2022-10-19T14:09:11.483Z,1.75
2022-10-19T14:11:41.622Z,1.27
2022-10-19T14:14:18.505Z,2.90
2022-10-19T14:16:57.182Z,1.10
2022-10-19T14:19:29.951Z,1.83
2022-10-19T14:22:16.991Z,1.67
2022-10-19T14:24:44.492Z,1.50
2022-10-19T14:27:23.523Z,3.28
2022-10-19T14:29:53.668Z,1.55
2022-10-19T14:32:27.970Z,1.80
2022-10-19T14:37:32.804Z,1.00
2022-10-19T14:40:29.312Z,0.85
2022-10-19T14:42:58.765Z,0.68
2022-10-19T14:45:35.124Z,0.88
2022-10-19T14:48:17.048Z,1.05
2022-10-19T14:50:56.621Z,1.02
2022-10-19T14:53:51.169Z,0.73
2022-10-19T14:56:38.971Z,4.20
2022-10-19T14:59:21.453Z,3.67
2022-10-19T15:01:51.115Z,1.85
2022-10-19T15:04:31.545Z,2.63
2022-10-19T15:07:02.289Z,1.60
2022-10-19T15:09:47.461Z,1.90
2022-10-19T15:12:19.075Z,5.72
2022-10-19T15:14:48.558Z,1.20
2022-10-19T15:17:31.367Z,1.52
2022-10-19T15:20:01.430Z,1.42
2022-10-19T15:22:32.597Z,1.25
2022-10-19T15:25:31.303Z,1.17
2022-10-19T15:27:58.877Z,1.08
2022-10-19T15:30:32.561Z,1.25
2022-10-19T15:33:03.053Z,1.88
2022-10-19T15:35:35.919Z,1.00
2022-10-19T15:38:25.878Z,1.15
2022-10-19T15:41:01.722Z,1.10
2022-10-19T15:44:02.879Z,0.77
2022-10-19T15:46:48.677Z,1.77
2022-10-19T15:49:16.308Z,1.45
2022-10-19T15:51:46.244Z,1.20
2022-10-19T15:54:30.821Z,1.30
2022-10-19T15:57:51.355Z,1.42
2022-10-19T16:00:20.331Z,1.55
2022-10-19T16:02:48.112Z,1.02
2022-10-19T16:05:15.770Z,0.90
2022-10-19T16:07:43.407Z,0.88
2022-10-19T16:10:23.109Z,1.17
2022-10-19T16:12:50.734Z,0.68
2022-10-19T16:15:23.624Z,1.15
2022-10-19T16:17:57.969Z,1.85
2022-10-19T16:20:27.590Z,1.63
2022-10-19T16:22:55.194Z,1.40
2022-10-19T16:25:22.832Z,1.45
2022-10-19T16:27:50.491Z,1.42
2022-10-19T16:30:18.288Z,0.90
2022-10-19T16:32:48.437Z,1.40
2022-10-19T16:35:17.495Z,1.10
2022-10-19T16:37:45.175Z,2.03
2022-10-19T16:40:12.751Z,1.13
2022-10-19T16:42:40.689Z,1.50
2022-10-19T16:45:09.085Z,1.27
2022-10-19T16:47:36.747Z,1.95
2022-10-19T16:50:06.027Z,1.60
2022-10-19T16:52:37.317Z,1.40
2022-10-19T16:55:05.781Z,1.90
2022-10-19T16:57:33.585Z,2.67
2022-10-19T17:00:01.122Z,4.13
2022-10-19T17:02:28.742Z,3.28
2022-10-19T17:04:56.628Z,3.65
2022-10-19T17:07:24.800Z,3.15
2022-10-19T17:09:54.869Z,2.63
2022-10-19T17:12:23.994Z,3.35
2022-10-19T17:14:51.783Z,2.60
2022-10-19T17:17:25.078Z,2.35
2022-10-19T17:19:52.848Z,1.98
2022-10-19T17:22:20.493Z,2.50
2022-10-19T17:24:48.144Z,3.53
2022-10-19T17:27:15.874Z,2.50
2022-10-19T17:29:43.700Z,2.90
2022-10-19T17:32:16.965Z,1.58
2022-10-19T17:34:44.677Z,1.55
2022-10-19T17:37:12.289Z,2.67
2022-10-19T17:39:39.979Z,1.88
2022-10-19T17:42:13.062Z,2.92
2022-10-19T17:44:43.903Z,2.70
2022-10-19T17:47:11.552Z,1.77
2022-10-19T17:49:39.275Z,1.50
2022-10-19T17:52:07.013Z,2.03
2022-10-19T17:54:43.529Z,2.72
2022-10-19T17:57:22.170Z,2.80
2022-10-19T17:59:54.937Z,3.00
2022-10-19T18:02:22.853Z,2.10
2022-10-19T18:04:50.660Z,2.20
2022-10-19T18:07:22.061Z,3.20
2022-10-19T18:09:51.568Z,2.92
2022-10-19T18:12:19.322Z,2.45
2022-10-19T18:14:49.997Z,2.13
2022-10-19T18:17:17.667Z,2.15
2022-10-19T18:19:45.545Z,1.98
2022-10-19T18:22:13.161Z,2.38
2022-10-19T18:24:41.138Z,2.88
2022-10-19T18:27:09.481Z,1.65
2022-10-19T18:29:37.201Z,2.35
2022-10-19T18:34:35.115Z,1.92
2022-10-19T18:37:02.930Z,2.92
2022-10-19T18:39:30.559Z,1.60
2022-10-19T18:41:58.437Z,2.67
2022-10-19T18:44:32.548Z,2.33
2022-10-19T18:47:02.014Z,1.70
2022-10-19T18:49:29.787Z,1.85
2022-10-19T18:51:57.515Z,2.00
2022-10-19T18:54:28.129Z,2.00
2022-10-19T18:56:55.999Z,2.65
2022-10-19T18:59:24.198Z,1.90
2022-10-19T19:01:52.228Z,2.00
2022-10-19T19:04:20.029Z,2.22
2022-10-19T19:06:47.746Z,2.15
2022-10-19T19:09:17.428Z,2.03
2022-10-19T19:11:45.162Z,2.17
2022-10-19T19:14:15.527Z,2.50
2022-10-19T19:16:44.778Z,2.35
2022-10-19T19:19:14.237Z,2.03
2022-10-19T19:21:44.526Z,1.65
2022-10-19T19:24:17.117Z,2.22
2022-10-19T19:26:49.402Z,2.88
2022-10-19T19:29:18.507Z,5.03
2022-10-19T19:31:47.199Z,3.03
2022-10-19T19:34:14.953Z,3.08
2022-10-19T19:36:47.753Z,2.13
2022-10-19T19:39:19.442Z,2.60
2022-10-19T19:41:48.016Z,2.65
2022-10-19T19:44:16.217Z,2.25
2022-10-19T19:46:44.005Z,2.88
2022-10-19T19:49:12.082Z,2.25
2022-10-19T19:51:39.781Z,2.78
2022-10-19T19:54:07.594Z,2.65
2022-10-19T19:56:39.324Z,2.28
2022-10-19T19:59:07.073Z,2.13
2022-10-19T20:01:36.944Z,2.50
2022-10-19T20:04:05.787Z,2.15
2022-10-19T20:06:35.927Z,2.40
2022-10-19T20:09:05.227Z,2.60
2022-10-19T20:11:33.038Z,2.80
2022-10-19T20:14:00.642Z,2.05
2022-10-19T20:16:32.203Z,2.63
2022-10-19T20:19:20.177Z,2.20
2022-10-19T20:21:47.895Z,2.40
2022-10-19T20:24:15.672Z,2.15
2022-10-19T20:26:43.320Z,2.60
2022-10-19T20:29:11.048Z,3.85
2022-10-19T20:31:40.436Z,2.47
2022-10-19T20:34:10.908Z,2.25
2022-10-19T20:36:38.695Z,2.25
2022-10-19T20:39:06.419Z,2.50
2022-10-19T20:41:34.430Z,2.97
2022-10-19T20:44:03.386Z,2.72
2022-10-19T20:46:31.700Z,2.33
2022-10-19T20:49:01.599Z,2.80
2022-10-19T20:51:37.014Z,2.65
2022-10-19T20:54:07.651Z,2.53
2022-10-19T20:56:37.745Z,2.40
2022-10-19T20:59:14.850Z,2.38
2022-10-19T21:01:44.126Z,2.60
2022-10-19T21:04:13.747Z,2.40
2022-10-19T21:06:44.642Z,2.42
2022-10-19T21:09:17.022Z,2.75
2022-10-19T21:11:46.001Z,2.00
2022-10-19T21:14:23.684Z,2.13
2022-10-19T21:16:56.518Z,2.25
2022-10-19T21:19:26.087Z,1.80
2022-10-19T21:21:57.110Z,2.05
2022-10-19T21:24:27.725Z,1.77
2022-10-19T21:26:55.472Z,2.55
2022-10-19T21:29:23.222Z,2.03
2022-10-19T21:31:53.058Z,1.50
2022-10-19T21:34:26.712Z,1.55
2022-10-19T21:36:54.787Z,1.90
2022-10-19T21:39:22.482Z,1.30
2022-10-19T21:41:50.677Z,1.73
2022-10-19T21:44:18.993Z,1.85
2022-10-19T21:46:50.444Z,1.90
2022-10-19T21:49:18.362Z,1.55
2022-10-19T21:51:54.018Z,1.83
2022-10-19T21:54:27.335Z,1.67
2022-10-19T21:56:56.713Z,1.70
2022-10-19T21:59:25.086Z,2.22
2022-10-19T22:01:56.544Z,1.90
2022-10-19T22:04:24.570Z,2.60
2022-10-19T22:06:52.335Z,2.40
2022-10-19T22:09:23.631Z,2.17
2022-10-19T22:11:51.452Z,1.70
2022-10-19T22:14:19.155Z,2.20
2022-10-19T22:16:47.086Z,1.55
2022-10-19T22:19:14.759Z,2.13
2022-10-19T22:21:42.505Z,1.83
2022-10-19T22:24:13.796Z,1.67
2022-10-19T22:26:47.185Z,1.27
2022-10-19T22:29:15.506Z,2.40
2022-10-19T22:31:43.288Z,1.35
2022-10-19T22:34:16.245Z,2.10
2022-10-19T22:36:44.938Z,2.17
2022-10-19T22:39:13.293Z,1.80
2022-10-19T22:41:40.858Z,2.25
2022-10-19T22:44:08.589Z,1.40
2022-10-19T22:46:36.218Z,2.10
2022-10-19T22:49:04.115Z,1.85
2022-10-19T22:51:31.791Z,1.63
2022-10-19T22:53:59.462Z,2.13
2022-10-19T22:56:27.094Z,2.22
2022-10-19T22:58:59.030Z,1.23
2022-10-19T23:01:27.456Z,1.52
2022-10-19T23:03:55.743Z,1.35
2022-10-19T23:06:23.620Z,1.50
2022-10-19T23:08:51.388Z,1.88
2022-10-19T23:11:19.275Z,1.40
2022-10-19T23:13:46.926Z,1.35
2022-10-19T23:16:14.557Z,2.05
2022-10-19T23:18:42.217Z,1.58
2022-10-19T23:21:12.547Z,1.40
2022-10-19T23:23:41.382Z,1.90
2022-10-19T23:26:19.894Z,1.17
2022-10-19T23:28:49.465Z,1.83
2022-10-19T23:31:19.990Z,1.70
2022-10-19T23:33:47.618Z,1.20
2022-10-19T23:36:21.742Z,1.40
2022-10-19T23:38:50.517Z,1.42
2022-10-19T23:41:18.883Z,1.33
2022-10-19T23:43:47.221Z,1.98
2022-10-19T23:46:15.248Z,1.50
2022-10-19T23:48:43.023Z,1.85
2022-10-19T23:51:16.138Z,1.45
2022-10-19T23:53:45.107Z,1.50
2022-10-19T23:56:32.603Z,1.40
2022-10-19T23:59:00.243Z,1.67
